createdAt,value
2018-08-09T00:02:27.505Z,3
2018-08-09T00:05:27.830Z,2.9
2018-08-09T00:08:27.572Z,3
2018-08-09T00:14:27.810Z,3.2
2018-08-09T00:17:27.665Z,2.9
2018-08-09T00:20:27.596Z,2.8
2018-08-09T00:23:27.709Z,2.8
2018-08-09T00:26:27.705Z,2.9
2018-08-09T00:29:27.675Z,2.8
2018-08-09T00:32:27.718Z,3.5
2018-08-09T00:35:27.728Z,3.1
2018-08-09T00:38:27.736Z,2.8
2018-08-09T00:44:27.869Z,3.3
2018-08-09T00:47:27.801Z,3.1
2018-08-09T00:50:27.533Z,3
2018-08-09T00:53:27.674Z,3
2018-08-09T00:56:27.500Z,2.9
2018-08-09T00:59:27.588Z,2.9
2018-08-09T01:02:27.742Z,2.8
2018-08-09T01:05:27.563Z,2.9
2018-08-09T01:08:27.648Z,2.9
2018-08-09T01:14:27.760Z,2.9
2018-08-09T01:17:27.555Z,2.8
2018-08-09T01:20:27.619Z,2.9
2018-08-09T01:23:27.578Z,2.8
2018-08-09T01:26:27.483Z,2.8
2018-08-09T01:29:27.550Z,2.9
2018-08-09T01:32:27.587Z,3
2018-08-09T01:35:27.606Z,2.9
2018-08-09T01:38:27.610Z,2.9
2018-08-09T01:44:27.871Z,2.9
2018-08-09T01:47:27.531Z,2.8
2018-08-09T01:50:27.582Z,3
2018-08-09T01:53:27.570Z,3
2018-08-09T01:56:27.552Z,2.9
2018-08-09T01:59:27.566Z,3.2
2018-08-09T02:02:27.490Z,3
2018-08-09T02:05:27.480Z,2.9
2018-08-09T02:08:27.639Z,2.8
2018-08-09T02:14:27.517Z,3
2018-08-09T02:17:27.727Z,2.9
2018-08-09T02:20:27.566Z,2.9
2018-08-09T02:23:27.603Z,2.9
2018-08-09T02:26:27.870Z,2.9
2018-08-09T02:29:27.549Z,2.9
2018-08-09T02:32:27.572Z,2.8
2018-08-09T02:35:27.510Z,2.9
2018-08-09T02:38:27.669Z,3
2018-08-09T02:44:27.544Z,3
2018-08-09T02:47:27.606Z,3
2018-08-09T02:50:27.683Z,2.9
2018-08-09T02:53:27.590Z,2.9
2018-08-09T02:56:27.564Z,2.8
2018-08-09T02:59:27.708Z,3
2018-08-09T03:02:27.938Z,2.9
2018-08-09T03:05:27.527Z,2.8
2018-08-09T03:08:27.534Z,2.7
2018-08-09T03:14:27.902Z,3.1
2018-08-09T03:17:27.631Z,3
2018-08-09T03:20:27.485Z,2.9
2018-08-09T03:23:27.573Z,3
2018-08-09T03:26:27.937Z,2.9
2018-08-09T03:29:27.610Z,3
2018-08-09T03:32:28.041Z,2.9
2018-08-09T03:35:27.916Z,2.9
2018-08-09T03:38:27.470Z,3
2018-08-09T03:44:27.568Z,3
2018-08-09T03:47:27.494Z,2.9
2018-08-09T03:50:27.576Z,2.9
2018-08-09T03:53:27.623Z,2.9
2018-08-09T03:56:27.665Z,2.9
2018-08-09T03:59:27.510Z,2.9
2018-08-09T04:02:27.644Z,2.9
2018-08-09T04:05:27.576Z,3
2018-08-09T04:08:27.494Z,3
2018-08-09T04:14:27.615Z,3
2018-08-09T04:17:27.823Z,2.9
2018-08-09T04:20:27.570Z,2.9
2018-08-09T04:23:27.568Z,2.9
2018-08-09T04:26:28.361Z,2.8
2018-08-09T04:29:27.498Z,2.9
2018-08-09T04:32:27.582Z,2.9
2018-08-09T04:35:27.670Z,2.8
2018-08-09T04:38:27.555Z,2.8
2018-08-09T04:44:27.784Z,2.8
2018-08-09T04:47:27.480Z,2.8
2018-08-09T04:50:27.639Z,2.9
2018-08-09T04:53:27.480Z,2.9
2018-08-09T04:56:27.504Z,2.9
2018-08-09T04:59:27.567Z,3
2018-08-09T05:02:27.663Z,2.9
2018-08-09T05:05:27.655Z,2.9
2018-08-09T05:08:27.639Z,2.9
2018-08-09T05:14:27.579Z,2.8
2018-08-09T05:17:27.549Z,2.9
2018-08-09T05:20:27.501Z,2.9
2018-08-09T05:23:27.661Z,2.9
2018-08-09T05:26:28.046Z,2.9
2018-08-09T05:29:27.683Z,2.9
2018-08-09T05:32:27.666Z,2.9
2018-08-09T05:35:27.811Z,2.8
2018-08-09T05:38:27.658Z,2.8
2018-08-09T05:44:27.474Z,2.8
2018-08-09T05:47:27.493Z,2.8
2018-08-09T05:50:27.539Z,2.8
2018-08-09T05:53:27.681Z,2.9
2018-08-09T05:56:27.653Z,2.8
2018-08-09T05:59:27.611Z,2.9
2018-08-09T06:02:27.602Z,2.8
2018-08-09T06:05:27.404Z,2.8
2018-08-09T06:08:27.634Z,2.9
2018-08-09T06:14:27.557Z,2.8
2018-08-09T06:17:27.546Z,2.8
2018-08-09T06:20:27.667Z,2.8
2018-08-09T06:23:27.638Z,2.8
2018-08-09T06:26:28.941Z,2.9
2018-08-09T06:29:27.500Z,2.8
2018-08-09T06:32:27.593Z,2.9
2018-08-09T06:35:27.521Z,2.8
2018-08-09T06:38:27.590Z,2.7
2018-08-09T06:44:27.545Z,2.9
2018-08-09T06:47:27.930Z,2.9
2018-08-09T06:50:27.568Z,2.9
2018-08-09T06:53:27.637Z,2.9
2018-08-09T06:56:27.412Z,2.8
2018-08-09T06:59:27.553Z,2.8
2018-08-09T07:02:27.634Z,2.8
2018-08-09T07:05:27.486Z,2.9
2018-08-09T07:08:27.881Z,2.9
2018-08-09T07:14:27.451Z,2.9
2018-08-09T07:17:27.509Z,2.9
2018-08-09T07:20:28.895Z,2.9
2018-08-09T07:23:27.576Z,2.8
2018-08-09T07:26:28.567Z,2.8
2018-08-09T07:29:27.871Z,2.7
2018-08-09T07:35:27.561Z,2.7
2018-08-09T07:38:27.462Z,2.8
2018-08-09T07:41:27.638Z,2.8
2018-08-09T07:44:27.407Z,2.7
2018-08-09T07:47:27.394Z,2.7
2018-08-09T07:50:27.614Z,2.7
2018-08-09T07:53:27.498Z,2.8
2018-08-09T07:56:27.473Z,2.8
2018-08-09T07:59:27.602Z,2.8
2018-08-09T08:05:27.659Z,2.8
2018-08-09T08:08:28.401Z,2.7
2018-08-09T08:11:27.700Z,2.8
2018-08-09T08:14:27.536Z,2.8
2018-08-09T08:17:27.679Z,3.5
2018-08-09T08:20:27.587Z,3.1
2018-08-09T08:23:27.543Z,3.2
2018-08-09T08:26:27.744Z,3.3
2018-08-09T08:29:27.571Z,3.3
2018-08-09T08:35:27.827Z,3.5
2018-08-09T08:38:27.430Z,3.5
2018-08-09T08:41:28.553Z,4.3
2018-08-09T08:44:27.607Z,5.5
2018-08-09T08:47:28.518Z,5
2018-08-09T08:50:27.476Z,5.1
2018-08-09T08:56:27.540Z,4.6
2018-08-09T08:59:27.447Z,4.3
2018-08-09T09:02:27.526Z,4.5
2018-08-09T09:05:27.522Z,4.1
2018-08-09T09:08:27.402Z,3.9
2018-08-09T09:11:27.336Z,3.7
2018-08-09T09:14:27.637Z,4.4
2018-08-09T09:17:27.485Z,3.9
2018-08-09T09:20:27.444Z,3.7
2018-08-09T09:26:27.438Z,3.8
2018-08-09T09:29:27.513Z,4.2
2018-08-09T09:32:27.390Z,3.7
2018-08-09T09:35:27.537Z,3.7
2018-08-09T09:38:27.537Z,3.6
2018-08-09T09:41:28.487Z,3.5
2018-08-09T09:44:27.432Z,3.5
2018-08-09T09:47:27.549Z,3.4
2018-08-09T09:50:27.498Z,3.4
2018-08-09T09:56:27.500Z,3.6
2018-08-09T09:59:27.572Z,3.5
2018-08-09T10:02:27.613Z,3.5
2018-08-09T10:05:27.409Z,3.4
2018-08-09T10:08:27.591Z,3.7
2018-08-09T10:11:27.630Z,3.8
2018-08-09T10:14:27.895Z,3.7
2018-08-09T10:17:27.458Z,3.7
2018-08-09T10:20:27.390Z,3.7
2018-08-09T10:26:27.539Z,3.6
2018-08-09T10:29:27.593Z,3.6
2018-08-09T10:32:27.337Z,3.7
2018-08-09T10:35:27.913Z,3.6
2018-08-09T10:38:27.524Z,3.6
2018-08-09T10:41:27.520Z,3.6
2018-08-09T10:44:27.441Z,3.6
2018-08-09T10:47:27.436Z,3.7
2018-08-09T10:50:27.447Z,3.6
2018-08-09T10:56:27.637Z,3.6
2018-08-09T10:59:28.013Z,3.4
2018-08-09T11:02:27.641Z,3.6
2018-08-09T11:05:27.615Z,3.7
2018-08-09T11:08:27.486Z,3.6
2018-08-09T11:11:27.529Z,3.5
2018-08-09T11:14:27.447Z,3.6
2018-08-09T11:17:27.587Z,3.5
2018-08-09T11:20:27.354Z,3.5
2018-08-09T11:26:27.477Z,3.5
2018-08-09T11:29:27.485Z,3.5
2018-08-09T11:32:27.338Z,3.6
2018-08-09T11:35:27.617Z,3.7
2018-08-09T11:38:27.561Z,3.8
2018-08-09T11:41:27.388Z,4.1
2018-08-09T11:44:27.384Z,4.2
2018-08-09T11:47:27.675Z,4.8
2018-08-09T11:50:27.498Z,4.8
2018-08-09T11:56:28.576Z,4.7
2018-08-09T11:59:27.522Z,4.8
2018-08-09T12:02:27.578Z,7
2018-08-09T12:05:27.509Z,6.6
2018-08-09T12:08:27.398Z,5.6
2018-08-09T12:11:27.374Z,5.5
2018-08-09T12:14:29.819Z,5.8
2018-08-09T12:17:27.305Z,4.8
2018-08-09T12:20:27.532Z,4.3
2018-08-09T12:26:27.654Z,4.5
2018-08-09T12:29:27.729Z,4.3
2018-08-09T12:32:27.536Z,4.1
2018-08-09T12:35:27.384Z,4.2
2018-08-09T12:38:27.470Z,4.3
2018-08-09T12:41:27.846Z,4.4
2018-08-09T12:44:27.577Z,4.2
2018-08-09T12:47:27.541Z,4.1
2018-08-09T12:50:27.410Z,4.3
2018-08-09T12:56:27.375Z,4.4
2018-08-09T12:59:27.524Z,4.7
2018-08-09T13:02:27.317Z,4.8
2018-08-09T13:05:27.604Z,4.5
2018-08-09T13:08:28.083Z,4.2
2018-08-09T13:11:27.574Z,4.2
2018-08-09T13:14:27.433Z,4.2
2018-08-09T13:17:27.547Z,4.2
2018-08-09T13:20:27.440Z,4.2
2018-08-09T13:26:27.610Z,4.6
2018-08-09T13:29:27.517Z,4.4
2018-08-09T13:32:27.569Z,4.3
2018-08-09T13:35:27.496Z,4.3
2018-08-09T13:38:27.517Z,4.2
2018-08-09T13:41:27.512Z,4
2018-08-09T13:44:27.628Z,4
2018-08-09T13:47:27.479Z,4
2018-08-09T13:50:27.663Z,3.9
2018-08-09T13:56:27.408Z,4
2018-08-09T13:59:27.482Z,4
2018-08-09T14:02:27.397Z,3.9
2018-08-09T14:05:27.557Z,3.8
2018-08-09T14:08:27.503Z,3.9
2018-08-09T14:11:27.411Z,3.9
2018-08-09T14:14:27.373Z,3.7
2018-08-09T14:17:27.456Z,3.8
2018-08-09T14:20:27.333Z,3.8
2018-08-09T14:26:27.509Z,3.8
2018-08-09T14:29:27.503Z,4.5
2018-08-09T14:32:27.375Z,4.1
2018-08-09T14:35:27.527Z,3.9
2018-08-09T14:38:27.513Z,3.9
2018-08-09T14:41:27.844Z,3.8
2018-08-09T14:44:27.500Z,3.6
2018-08-09T14:47:27.368Z,3.6
2018-08-09T14:50:27.508Z,3.6
2018-08-09T14:56:27.350Z,3.6
2018-08-09T14:59:27.489Z,3.6
2018-08-09T15:02:27.502Z,3.9
2018-08-09T15:05:27.501Z,3.8
2018-08-09T15:08:27.312Z,3.7
2018-08-09T15:11:27.901Z,3.7
2018-08-09T15:14:27.539Z,3.7
2018-08-09T15:17:27.509Z,3.6
2018-08-09T15:20:27.370Z,3.6
2018-08-09T15:26:27.493Z,3.6
2018-08-09T15:29:27.594Z,3.5
2018-08-09T15:32:27.427Z,3.5
2018-08-09T15:35:27.406Z,3.5
2018-08-09T15:38:27.601Z,3.6
2018-08-09T15:41:27.540Z,3.5
2018-08-09T15:44:27.395Z,3.5
2018-08-09T15:47:29.515Z,3.5
2018-08-09T15:50:27.621Z,3.4
2018-08-09T15:56:27.656Z,3.4
2018-08-09T15:59:27.462Z,3.5
2018-08-09T16:02:28.631Z,3.4
2018-08-09T16:05:27.723Z,4.5
2018-08-09T16:08:27.621Z,5.4
2018-08-09T16:11:27.487Z,5.7
2018-08-09T16:17:27.605Z,6.7
2018-08-09T16:20:27.631Z,7.1
2018-08-09T16:23:27.601Z,6.9
2018-08-09T16:26:27.539Z,6.3
2018-08-09T16:29:27.465Z,6.6
2018-08-09T16:32:27.565Z,6.5
2018-08-09T16:35:27.329Z,6.4
2018-08-09T16:38:27.518Z,9.1
2018-08-09T16:41:28.180Z,8.1
2018-08-09T16:47:27.281Z,7.1
2018-08-09T16:50:27.322Z,11.2
2018-08-09T16:53:27.496Z,9.3
2018-08-09T16:56:27.792Z,7.5
2018-08-09T17:02:13.525Z,6.9
2018-08-09T17:05:13.598Z,6.6
2018-08-09T17:08:13.904Z,6.5
2018-08-09T17:11:13.523Z,5.8
2018-08-09T17:14:13.609Z,6.3
2018-08-09T17:17:13.821Z,6
2018-08-09T17:20:13.800Z,5.4
2018-08-09T17:23:13.916Z,5
2018-08-09T17:26:13.582Z,5
2018-08-09T17:32:13.654Z,4.7
2018-08-09T17:35:13.794Z,5.1
2018-08-09T17:38:13.594Z,4.9
2018-08-09T17:41:13.650Z,6
2018-08-09T17:44:13.651Z,5.3
2018-08-09T17:47:13.629Z,5.5
2018-08-09T17:50:13.901Z,4.9
2018-08-09T17:53:13.861Z,5.1
2018-08-09T17:56:13.559Z,5.2
2018-08-09T18:02:13.778Z,4.9
2018-08-09T18:05:13.623Z,4.9
2018-08-09T18:08:13.581Z,4.6
2018-08-09T18:11:13.758Z,4.4
2018-08-09T18:14:13.622Z,5
2018-08-09T18:17:13.603Z,4.5
2018-08-09T18:20:13.739Z,4.6
2018-08-09T18:23:13.532Z,4.6
2018-08-09T18:26:13.663Z,4.3
2018-08-09T18:32:13.638Z,5.2
2018-08-09T18:35:13.908Z,4.9
2018-08-09T18:38:13.526Z,5.2
2018-08-09T18:41:13.738Z,5.2
2018-08-09T18:44:13.793Z,5
2018-08-09T18:47:13.625Z,4.8
2018-08-09T18:50:13.524Z,4
2018-08-09T18:53:13.769Z,5.8
2018-08-09T18:56:13.621Z,4.9
2018-08-09T19:02:13.667Z,4.3
2018-08-09T19:05:13.594Z,4.3
2018-08-09T19:08:13.606Z,5.2
2018-08-09T19:11:13.924Z,4.2
2018-08-09T19:14:13.688Z,3.9
2018-08-09T19:17:13.830Z,3.9
2018-08-09T19:20:13.776Z,3.4
2018-08-09T19:23:13.609Z,3.6
2018-08-09T19:26:13.772Z,3.5
2018-08-09T19:32:13.694Z,3.2
2018-08-09T19:35:13.701Z,3.3
2018-08-09T19:38:14.409Z,3.6
2018-08-09T19:41:13.758Z,3.2
2018-08-09T19:44:13.562Z,4
2018-08-09T19:47:13.539Z,3.4
2018-08-09T19:50:13.572Z,3.3
2018-08-09T19:55:02.990Z,4
2018-08-09T19:58:02.920Z,3.8
2018-08-09T20:01:03.197Z,3.4
2018-08-09T20:04:02.898Z,8.8
2018-08-09T20:07:03.052Z,11.8
2018-08-09T20:10:02.874Z,9.8
2018-08-09T20:13:02.996Z,8.7
2018-08-09T20:16:03.403Z,9.6
2018-08-09T20:19:02.942Z,8.4
2018-08-09T20:25:02.980Z,7.3
2018-08-09T20:28:03.033Z,7.6
2018-08-09T20:31:03.107Z,6.9
2018-08-09T20:34:03.538Z,5.6
2018-08-09T20:37:02.936Z,4.9
2018-08-09T20:40:03.275Z,4.7
2018-08-09T20:43:02.944Z,4.4
2018-08-09T20:46:03.024Z,4.1
2018-08-09T20:49:03.018Z,4.3
2018-08-09T20:55:02.974Z,4.6
2018-08-09T20:58:02.891Z,4.5
2018-08-09T21:01:02.914Z,3.9
2018-08-09T21:04:02.975Z,4.4
2018-08-09T21:07:03.166Z,5
2018-08-09T21:10:02.858Z,4.5
2018-08-09T21:13:03.213Z,4.1
2018-08-09T21:16:02.949Z,5.7
2018-08-09T21:19:03.022Z,5.5
2018-08-09T21:25:03.040Z,5.1
2018-08-09T21:28:03.071Z,4.7
2018-08-09T21:31:03.077Z,4
2018-08-09T21:34:03.148Z,3.4
2018-08-09T21:37:03.015Z,3.2
2018-08-09T21:40:03.146Z,3.1
2018-08-09T21:43:02.878Z,3
2018-08-09T21:46:03.081Z,2.9
2018-08-09T21:49:03.244Z,2.8
2018-08-09T21:55:02.965Z,2.8
2018-08-09T21:58:03.059Z,3.6
2018-08-09T22:01:03.165Z,3.2
2018-08-09T22:04:03.254Z,3.2
2018-08-09T22:07:03.081Z,3.4
2018-08-09T22:10:03.154Z,3.1
2018-08-09T22:13:03.053Z,2.9
2018-08-09T22:16:03.073Z,2.9
2018-08-09T22:19:03.084Z,2.7
2018-08-09T22:25:03.003Z,3.5
2018-08-09T22:28:03.318Z,3
2018-08-09T22:31:03.038Z,3
2018-08-09T22:34:02.920Z,3
2018-08-09T22:37:03.021Z,2.8
2018-08-09T22:40:02.950Z,3
2018-08-09T22:43:02.992Z,2.7
2018-08-09T22:46:02.906Z,2.7
2018-08-09T22:49:02.968Z,2.5
2018-08-09T22:55:02.791Z,2.4
2018-08-09T22:58:02.841Z,2.4
2018-08-09T23:01:02.907Z,2.4
2018-08-09T23:04:02.940Z,2.4
2018-08-09T23:07:02.993Z,2.5
2018-08-09T23:10:02.820Z,2.7
2018-08-09T23:13:02.848Z,2.6
2018-08-09T23:16:02.844Z,2.5
2018-08-09T23:19:03.007Z,2.5
2018-08-09T23:25:02.832Z,2.5
2018-08-09T23:28:03.241Z,2.4
2018-08-09T23:31:02.961Z,2.3
2018-08-09T23:34:02.720Z,2.7
2018-08-09T23:37:03.136Z,2.6
2018-08-09T23:40:02.886Z,2.4
2018-08-09T23:43:02.763Z,2.3
2018-08-09T23:46:02.891Z,2.3
2018-08-09T23:49:02.834Z,2.2
2018-08-09T23:55:02.965Z,2.4
2018-08-09T23:58:03.084Z,2.3
